Home Home

RAPPORTS METEOROLOGIQUES

Les informations codées météorologiques ont la forme suivante:

Pour la météo actuelle (METAR – Météorologie aviation régulière)

ELLX 071050Z 10009KT 060V140 CAVOK 20/05 Q1021 NOSIG

 

Pour la prévision (TAF – terminal arerodrome forecast)

ELLX 070800Z 070918 09010KT CAVOK TEMPO 1215 SCT045

Retour